Time;durP1;ratioP1;P1;durP2;ratioP2;P2;SDS_P1;SDS_P2;PMS_P1;PMS_P2;Temp;Humidity;BMP_temperature;BMP_pressure;BME280_temperature;BME280_humidity;BME280_pressure;Samples;Min_cycle;Max_cycle;Signal;HPM_P1;HPM_P2
2021/09/07 00:00:59;;;;;;;;;;;19.80;65.80;;;;;;494990;240;1146;-66
2021/09/07 00:03:00;;;;;;;;;;;19.80;65.60;;;;;;495056;240;1172;-66
2021/09/07 00:05:01;;;;;;;;;;;20.00;65.10;;;;;;494979;240;1087;-66
2021/09/07 00:07:02;;;;;;;;;;;20.00;64.80;;;;;;495063;240;1244;-66
2021/09/07 00:09:04;;;;;;;;;;;20.00;65.10;;;;;;495438;240;1070;-66
2021/09/07 00:11:05;;;;;;;;;;;19.90;65.30;;;;;;495152;240;1229;-66
2021/09/07 00:13:06;;;;;;;;;;;20.10;64.80;;;;;;495013;240;1190;-66
2021/09/07 00:15:08;;;;;;;;;;;20.20;64.40;;;;;;494980;240;1165;-66
2021/09/07 00:17:09;;;;;;;;;;;20.20;64.40;;;;;;494972;240;2182;-66
2021/09/07 00:19:10;;;;;;;;;;;20.00;64.70;;;;;;494976;240;1190;-66
2021/09/07 00:21:12;;;;;;;;;;;20.00;65.10;;;;;;495162;240;1157;-66
2021/09/07 00:23:13;;;;;;;;;;;19.90;65.40;;;;;;495113;240;1034;-66
2021/09/07 00:25:15;;;;;;;;;;;19.80;65.60;;;;;;495160;240;1051;-66
2021/09/07 00:27:16;;;;;;;;;;;19.80;65.70;;;;;;494971;240;1047;-66
2021/09/07 00:29:17;;;;;;;;;;;20.00;65.10;;;;;;495075;240;1376;-66
2021/09/07 00:31:19;;;;;;;;;;;20.10;64.60;;;;;;494913;240;1059;-66
2021/09/07 00:33:20;;;;;;;;;;;20.10;64.70;;;;;;494966;240;1077;-66
2021/09/07 00:35:23;;;;;;;;;;;20.00;65.10;;;;;;494967;240;1169;-66
2021/09/07 00:37:23;;;;;;;;;;;19.90;65.30;;;;;;494938;240;2181;-66
2021/09/07 00:39:24;;;;;;;;;;;19.90;65.30;;;;;;494976;240;1030;-66
2021/09/07 00:41:25;;;;;;;;;;;19.90;65.20;;;;;;495102;240;1127;-66
2021/09/07 00:43:27;;;;;;;;;;;19.90;65.40;;;;;;495091;240;1064;-66
2021/09/07 00:45:28;;;;;;;;;;;19.80;65.60;;;;;;494954;240;1186;-66
2021/09/07 00:47:29;;;;;;;;;;;19.80;65.50;;;;;;495399;240;1096;-66
2021/09/07 00:49:31;;;;;;;;;;;19.90;65.50;;;;;;495110;240;1078;-66
2021/09/07 00:51:32;;;;;;;;;;;20.00;65.00;;;;;;494897;240;1099;-66
2021/09/07 00:53:33;;;;;;;;;;;20.00;64.80;;;;;;494973;240;1098;-66
2021/09/07 00:55:35;;;;;;;;;;;19.90;65.30;;;;;;495001;240;1205;-66
2021/09/07 00:57:36;;;;;;;;;;;19.80;65.60;;;;;;494966;240;2112;-66
2021/09/07 00:59:37;;;;;;;;;;;19.80;65.80;;;;;;495023;240;1142;-66
2021/09/07 01:01:39;;;;;;;;;;;19.70;65.80;;;;;;495131;240;1148;-66
2021/09/07 01:03:40;;;;;;;;;;;19.90;65.50;;;;;;495245;240;1026;-66
2021/09/07 01:05:41;;;;;;;;;;;20.00;65.10;;;;;;495322;240;1407;-66
2021/09/07 01:07:43;;;;;;;;;;;20.00;65.00;;;;;;494988;240;1064;-66
2021/09/07 01:09:45;;;;;;;;;;;19.90;65.30;;;;;;494982;240;1131;-66
2021/09/07 01:11:47;;;;;;;;;;;19.80;65.60;;;;;;494909;240;1271;-66
2021/09/07 01:13:48;;;;;;;;;;;19.70;65.90;;;;;;495026;240;1037;-66
2021/09/07 01:15:49;;;;;;;;;;;19.70;66.00;;;;;;495118;240;1192;-66
2021/09/07 01:17:51;;;;;;;;;;;19.80;65.80;;;;;;495013;240;2182;-66
2021/09/07 01:19:52;;;;;;;;;;;20.00;65.00;;;;;;495284;240;1076;-66
2021/09/07 01:21:53;;;;;;;;;;;20.20;64.40;;;;;;495055;240;1073;-66
2021/09/07 01:23:55;;;;;;;;;;;20.20;64.10;;;;;;494990;240;1094;-66
2021/09/07 01:25:56;;;;;;;;;;;20.10;64.50;;;;;;494994;240;1056;-66
2021/09/07 01:27:57;;;;;;;;;;;20.00;64.90;;;;;;495130;240;1212;-66
2021/09/07 01:29:59;;;;;;;;;;;19.90;65.20;;;;;;494924;240;1172;-66
2021/09/07 01:32:00;;;;;;;;;;;19.80;65.50;;;;;;495198;240;1062;-66
2021/09/07 01:34:01;;;;;;;;;;;19.80;65.50;;;;;;495243;240;1075;-66
2021/09/07 01:36:03;;;;;;;;;;;19.80;65.70;;;;;;494966;240;1060;-66
2021/09/07 01:38:04;;;;;;;;;;;19.70;65.90;;;;;;494959;237;2116;-66
2021/09/07 01:40:05;;;;;;;;;;;19.70;66.10;;;;;;495032;240;1072;-66
2021/09/07 01:42:07;;;;;;;;;;;19.70;66.10;;;;;;494979;240;1135;-66
2021/09/07 01:44:08;;;;;;;;;;;19.70;65.80;;;;;;495256;240;1123;-66
2021/09/07 01:46:09;;;;;;;;;;;19.70;65.90;;;;;;494954;240;1180;-66
2021/09/07 01:48:10;;;;;;;;;;;19.80;65.80;;;;;;494890;240;1163;-66
2021/09/07 01:50:12;;;;;;;;;;;19.90;65.40;;;;;;494938;240;1164;-66
2021/09/07 01:52:13;;;;;;;;;;;20.10;64.70;;;;;;494896;240;1061;-66
2021/09/07 01:54:15;;;;;;;;;;;20.20;64.10;;;;;;495467;240;1036;-66
2021/09/07 01:56:16;;;;;;;;;;;20.40;63.80;;;;;;495226;240;2139;-66
2021/09/07 01:58:17;;;;;;;;;;;20.50;63.20;;;;;;494941;240;1066;-66
2021/09/07 02:00:18;;;;;;;;;;;20.40;63.50;;;;;;494945;237;1289;-66
2021/09/07 02:02:20;;;;;;;;;;;20.30;64.00;;;;;;494985;240;1227;-66
2021/09/07 02:04:21;;;;;;;;;;;20.10;64.60;;;;;;495329;240;1035;-66
2021/09/07 02:06:22;;;;;;;;;;;19.90;65.10;;;;;;494986;240;1241;-66
2021/09/07 02:08:24;;;;;;;;;;;19.80;65.40;;;;;;495198;240;1071;-66
2021/09/07 02:10:25;;;;;;;;;;;19.80;65.60;;;;;;494948;240;1220;-66
2021/09/07 02:12:26;;;;;;;;;;;19.90;65.50;;;;;;494964;240;1106;-66
2021/09/07 02:14:28;;;;;;;;;;;19.90;65.40;;;;;;494970;240;1035;-66
2021/09/07 02:16:29;;;;;;;;;;;19.80;65.60;;;;;;494876;240;2171;-66
2021/09/07 02:18:30;;;;;;;;;;;19.80;65.90;;;;;;494966;240;1097;-66
2021/09/07 02:20:32;;;;;;;;;;;19.70;66.00;;;;;;494911;240;1050;-66
2021/09/07 02:22:33;;;;;;;;;;;19.60;66.10;;;;;;495046;240;1196;-66
2021/09/07 02:24:34;;;;;;;;;;;19.70;66.10;;;;;;494986;240;1072;-66
2021/09/07 02:26:36;;;;;;;;;;;19.80;65.70;;;;;;495162;240;1131;-66
2021/09/07 02:28:37;;;;;;;;;;;20.00;65.20;;;;;;494999;240;1061;-66
2021/09/07 02:30:38;;;;;;;;;;;19.90;65.10;;;;;;495115;240;1149;-66
2021/09/07 02:32:40;;;;;;;;;;;19.80;65.50;;;;;;494917;240;1160;-66
2021/09/07 02:34:41;;;;;;;;;;;19.70;65.80;;;;;;495329;240;1066;-66
2021/09/07 02:36:42;;;;;;;;;;;19.70;66.00;;;;;;495215;237;2203;-66
2021/09/07 02:38:43;;;;;;;;;;;19.70;66.00;;;;;;495021;240;1027;-66
2021/09/07 02:40:45;;;;;;;;;;;19.60;66.10;;;;;;495245;240;1173;-66
2021/09/07 02:42:46;;;;;;;;;;;19.80;65.70;;;;;;494905;240;1069;-66
2021/09/07 02:44:47;;;;;;;;;;;20.10;64.90;;;;;;495029;240;1197;-66
2021/09/07 02:46:49;;;;;;;;;;;20.20;64.30;;;;;;494771;240;1335;-66
2021/09/07 02:48:50;;;;;;;;;;;20.30;63.80;;;;;;495131;240;1291;-66
2021/09/07 02:50:51;;;;;;;;;;;20.50;63.40;;;;;;495138;240;1278;-66
2021/09/07 02:52:53;;;;;;;;;;;20.60;63.10;;;;;;494939;240;1160;-66
2021/09/07 02:54:54;;;;;;;;;;;20.40;63.50;;;;;;495031;240;1073;-66
2021/09/07 02:56:55;;;;;;;;;;;20.20;64.00;;;;;;494925;240;2144;-66
2021/09/07 02:58:57;;;;;;;;;;;20.10;64.60;;;;;;495005;240;1085;-66
2021/09/07 03:00:58;;;;;;;;;;;20.00;65.10;;;;;;494876;240;1251;-66
2021/09/07 03:02:59;;;;;;;;;;;19.90;65.30;;;;;;495056;240;1121;-66
2021/09/07 03:05:01;;;;;;;;;;;19.80;65.50;;;;;;495462;240;1093;-66
2021/09/07 03:07:02;;;;;;;;;;;19.80;65.80;;;;;;494922;240;1338;-66
2021/09/07 03:09:03;;;;;;;;;;;19.70;65.80;;;;;;495068;240;1065;-66
2021/09/07 03:11:05;;;;;;;;;;;19.80;65.80;;;;;;494932;240;1169;-66
2021/09/07 03:13:06;;;;;;;;;;;19.90;65.30;;;;;;495011;240;1132;-66
2021/09/07 03:15:07;;;;;;;;;;;19.90;65.30;;;;;;495030;240;1085;-66
2021/09/07 03:17:09;;;;;;;;;;;19.80;65.50;;;;;;495040;240;2198;-66
2021/09/07 03:19:10;;;;;;;;;;;19.70;65.70;;;;;;495023;240;1045;-66
2021/09/07 03:21:11;;;;;;;;;;;19.70;65.80;;;;;;495234;240;1115;-66
2021/09/07 03:23:13;;;;;;;;;;;19.80;65.70;;;;;;494938;240;1147;-66
2021/09/07 03:25:14;;;;;;;;;;;19.90;65.20;;;;;;495143;240;1061;-66
2021/09/07 03:27:15;;;;;;;;;;;19.90;65.30;;;;;;495002;240;1135;-66
2021/09/07 03:29:17;;;;;;;;;;;19.80;65.50;;;;;;495112;240;1184;-66
2021/09/07 03:31:18;;;;;;;;;;;19.70;65.70;;;;;;494970;240;1142;-66
2021/09/07 03:33:19;;;;;;;;;;;19.60;66.00;;;;;;495025;240;1129;-66
2021/09/07 03:35:21;;;;;;;;;;;19.60;66.10;;;;;;495005;240;1015;-66
2021/09/07 03:37:22;;;;;;;;;;;19.70;66.00;;;;;;495070;240;2135;-66
2021/09/07 03:39:23;;;;;;;;;;;19.60;66.00;;;;;;495152;240;1056;-66
2021/09/07 03:41:24;;;;;;;;;;;19.70;66.10;;;;;;494913;240;1171;-66
2021/09/07 03:43:26;;;;;;;;;;;19.90;65.40;;;;;;495084;240;1056;-66
2021/09/07 03:45:27;;;;;;;;;;;20.10;64.80;;;;;;494916;240;1141;-66
2021/09/07 03:47:28;;;;;;;;;;;20.10;64.60;;;;;;495070;236;1268;-66
2021/09/07 03:49:30;;;;;;;;;;;20.00;64.90;;;;;;495101;240;1057;-66
2021/09/07 03:51:31;;;;;;;;;;;19.90;65.20;;;;;;495116;240;1145;-66
2021/09/07 03:53:33;;;;;;;;;;;19.80;65.40;;;;;;494955;240;1071;-66
2021/09/07 03:55:34;;;;;;;;;;;19.80;65.70;;;;;;494923;240;1118;-66
2021/09/07 03:57:35;;;;;;;;;;;19.70;65.80;;;;;;495003;240;2178;-66
2021/09/07 03:59:36;;;;;;;;;;;19.80;65.80;;;;;;494985;240;1240;-66
2021/09/07 04:01:38;;;;;;;;;;;19.80;65.60;;;;;;495229;240;1173;-66
2021/09/07 04:03:39;;;;;;;;;;;19.90;65.40;;;;;;494990;240;1229;-66
2021/09/07 04:05:40;;;;;;;;;;;19.80;65.50;;;;;;495085;240;1061;-66
2021/09/07 04:07:42;;;;;;;;;;;19.80;65.60;;;;;;494853;240;1123;-66
2021/09/07 04:09:43;;;;;;;;;;;19.70;65.80;;;;;;494958;240;1079;-66
2021/09/07 04:11:44;;;;;;;;;;;19.70;65.90;;;;;;495250;236;1130;-66
2021/09/07 04:13:46;;;;;;;;;;;19.80;65.80;;;;;;495085;240;1054;-66
2021/09/07 04:15:47;;;;;;;;;;;19.80;65.70;;;;;;495353;240;1190;-66
2021/09/07 04:17:48;;;;;;;;;;;19.90;65.20;;;;;;495099;240;2158;-66
2021/09/07 04:19:50;;;;;;;;;;;20.00;64.90;;;;;;494992;240;1111;-66
2021/09/07 04:21:51;;;;;;;;;;;19.90;65.10;;;;;;494921;240;1115;-66
2021/09/07 04:23:52;;;;;;;;;;;20.00;64.90;;;;;;495053;240;1026;-66
2021/09/07 04:25:54;;;;;;;;;;;19.90;65.10;;;;;;494898;240;1088;-66
2021/09/07 04:27:55;;;;;;;;;;;19.80;65.30;;;;;;494943;240;1039;-66
2021/09/07 04:29:58;;;;;;;;;;;19.80;65.50;;;;;;494917;240;1057;-66
2021/09/07 04:31:59;;;;;;;;;;;19.80;65.50;;;;;;494836;240;1074;-66
2021/09/07 04:34:00;;;;;;;;;;;19.80;65.70;;;;;;494765;240;1173;-66
2021/09/07 04:36:02;;;;;;;;;;;19.80;65.40;;;;;;494857;240;1200;-66
2021/09/07 04:38:03;;;;;;;;;;;20.10;64.80;;;;;;494841;240;2186;-66
2021/09/07 04:40:04;;;;;;;;;;;20.20;64.20;;;;;;494801;240;1199;-66
2021/09/07 04:42:06;;;;;;;;;;;20.10;64.40;;;;;;494704;240;1065;-66
2021/09/07 04:44:07;;;;;;;;;;;20.00;64.80;;;;;;494981;236;1252;-66
2021/09/07 04:46:08;;;;;;;;;;;19.90;65.10;;;;;;494666;240;1098;-66
2021/09/07 04:48:09;;;;;;;;;;;19.80;65.50;;;;;;494651;240;1231;-66
2021/09/07 04:50:11;;;;;;;;;;;19.80;65.70;;;;;;494835;240;1170;-66
2021/09/07 04:52:12;;;;;;;;;;;19.90;65.20;;;;;;494366;240;1423;-66
2021/09/07 04:54:13;;;;;;;;;;;20.10;64.60;;;;;;494874;240;1047;-66
2021/09/07 04:56:15;;;;;;;;;;;20.20;64.10;;;;;;494783;240;1054;-66
2021/09/07 04:58:16;;;;;;;;;;;20.10;64.40;;;;;;494796;240;2198;-66
2021/09/07 05:00:17;;;;;;;;;;;20.00;64.80;;;;;;494974;240;1192;-66
2021/09/07 05:02:19;;;;;;;;;;;19.90;65.20;;;;;;494755;240;1102;-66
2021/09/07 05:04:20;;;;;;;;;;;19.80;65.50;;;;;;494754;240;1157;-66
2021/09/07 05:06:21;;;;;;;;;;;19.80;65.60;;;;;;494703;240;1169;-66
2021/09/07 05:08:23;;;;;;;;;;;19.80;65.60;;;;;;494770;240;1085;-66
2021/09/07 05:10:24;;;;;;;;;;;19.90;65.20;;;;;;494749;240;1102;-66
2021/09/07 05:12:27;;;;;;;;;;;20.10;64.80;;;;;;494833;240;1148;-66
2021/09/07 05:14:27;;;;;;;;;;;20.20;64.10;;;;;;494770;240;1294;-66
2021/09/07 05:16:28;;;;;;;;;;;20.20;64.10;;;;;;494940;240;1066;-66
2021/09/07 05:18:29;;;;;;;;;;;20.10;64.40;;;;;;494719;240;2186;-66
2021/09/07 05:20:31;;;;;;;;;;;20.00;64.90;;;;;;494633;240;1190;-66
2021/09/07 05:22:32;;;;;;;;;;;19.90;65.20;;;;;;494305;240;1059;-66
2021/09/07 05:24:34;;;;;;;;;;;19.80;65.40;;;;;;494439;240;1031;-66
2021/09/07 05:26:35;;;;;;;;;;;19.80;65.60;;;;;;494285;240;1053;-66
2021/09/07 05:28:36;;;;;;;;;;;19.70;65.70;;;;;;494311;240;1030;-66
2021/09/07 05:30:38;;;;;;;;;;;19.70;65.70;;;;;;494301;240;1029;-66
2021/09/07 05:32:39;;;;;;;;;;;19.90;65.30;;;;;;494308;240;1086;-66
2021/09/07 05:34:40;;;;;;;;;;;20.10;64.70;;;;;;494387;240;1185;-66
2021/09/07 05:36:42;;;;;;;;;;;20.20;64.30;;;;;;494275;240;1192;-66
2021/09/07 05:38:43;;;;;;;;;;;20.10;64.40;;;;;;494205;240;2199;-66
2021/09/07 05:40:44;;;;;;;;;;;20.00;64.80;;;;;;494302;240;1080;-66
2021/09/07 05:42:46;;;;;;;;;;;19.90;65.20;;;;;;494332;240;1157;-66
2021/09/07 05:44:47;;;;;;;;;;;19.80;65.40;;;;;;494313;240;1053;-66
2021/09/07 05:46:48;;;;;;;;;;;19.80;65.50;;;;;;494208;240;1272;-66
2021/09/07 05:48:50;;;;;;;;;;;19.90;65.20;;;;;;494177;240;1113;-66
2021/09/07 05:50:51;;;;;;;;;;;19.90;64.90;;;;;;494169;240;1097;-66
2021/09/07 05:52:52;;;;;;;;;;;19.80;65.10;;;;;;494240;240;1173;-66
2021/09/07 05:54:53;;;;;;;;;;;19.80;65.40;;;;;;494303;240;1164;-66
2021/09/07 05:56:57;;;;;;;;;;;19.80;65.70;;;;;;494138;240;1216;-66
2021/09/07 05:58:57;;;;;;;;;;;19.70;65.70;;;;;;493963;240;2203;-66
2021/09/07 06:00:58;;;;;;;;;;;19.70;65.80;;;;;;494148;240;1222;-66
2021/09/07 06:03:02;;;;;;;;;;;19.90;65.40;;;;;;494008;240;1072;-66
2021/09/07 06:05:01;;;;;;;;;;;20.00;64.70;;;;;;493924;240;1381;-66
2021/09/07 06:07:02;;;;;;;;;;;20.00;64.70;;;;;;494046;240;1233;-66
2021/09/07 06:09:03;;;;;;;;;;;19.90;65.00;;;;;;494059;240;1139;-66
2021/09/07 06:11:06;;;;;;;;;;;19.80;65.30;;;;;;493889;240;1348;-66
2021/09/07 06:13:06;;;;;;;;;;;19.70;65.70;;;;;;493932;240;1447;-66
2021/09/07 06:15:07;;;;;;;;;;;19.70;65.70;;;;;;494149;240;1386;-66
2021/09/07 06:17:08;;;;;;;;;;;19.80;65.60;;;;;;494066;240;1227;-66
2021/09/07 06:19:10;;;;;;;;;;;20.00;65.10;;;;;;493892;240;2182;-66
2021/09/07 06:21:12;;;;;;;;;;;20.20;64.40;;;;;;493958;240;1119;-66
2021/09/07 06:23:13;;;;;;;;;;;20.10;64.30;;;;;;493939;240;1224;-66
2021/09/07 06:25:14;;;;;;;;;;;20.00;64.60;;;;;;494037;240;1075;-66
2021/09/07 06:27:15;;;;;;;;;;;19.90;65.00;;;;;;493977;240;1206;-66
2021/09/07 06:29:17;;;;;;;;;;;19.80;65.40;;;;;;494117;240;1210;-66
2021/09/07 06:31:18;;;;;;;;;;;19.80;65.70;;;;;;493957;240;1085;-66
2021/09/07 06:33:19;;;;;;;;;;;19.70;65.80;;;;;;494189;240;1243;-66
2021/09/07 06:35:21;;;;;;;;;;;19.70;65.70;;;;;;494041;240;1273;-66
2021/09/07 06:37:22;;;;;;;;;;;19.80;65.70;;;;;;494007;240;1115;-66
2021/09/07 06:39:23;;;;;;;;;;;19.80;65.60;;;;;;494041;240;2151;-66
2021/09/07 06:41:25;;;;;;;;;;;19.90;65.30;;;;;;494060;240;1100;-66
2021/09/07 06:43:26;;;;;;;;;;;19.90;65.30;;;;;;493926;240;1459;-66
2021/09/07 06:45:27;;;;;;;;;;;19.90;65.10;;;;;;493842;240;1167;-66
2021/09/07 06:47:29;;;;;;;;;;;19.80;65.20;;;;;;493914;240;1134;-66
2021/09/07 06:49:30;;;;;;;;;;;19.80;65.30;;;;;;494030;240;1166;-66
2021/09/07 06:51:31;;;;;;;;;;;19.80;65.40;;;;;;494032;240;1167;-66
2021/09/07 06:53:33;;;;;;;;;;;19.80;65.20;;;;;;494026;240;1084;-66
2021/09/07 06:55:35;;;;;;;;;;;19.90;65.10;;;;;;494049;240;1061;-66
2021/09/07 06:57:35;;;;;;;;;;;20.00;64.80;;;;;;493990;240;1237;-66
2021/09/07 06:59:37;;;;;;;;;;;20.00;64.80;;;;;;494084;240;2194;-66
2021/09/07 07:01:38;;;;;;;;;;;20.00;64.80;;;;;;494381;236;1216;-66
2021/09/07 07:03:39;;;;;;;;;;;20.00;64.90;;;;;;493856;240;1099;-66
2021/09/07 07:05:41;;;;;;;;;;;19.90;65.20;;;;;;494015;240;1176;-66
2021/09/07 07:07:42;;;;;;;;;;;19.80;65.20;;;;;;494406;240;1219;-66
2021/09/07 07:09:43;;;;;;;;;;;19.80;65.40;;;;;;494982;240;828;-66
2021/09/07 07:11:45;;;;;;;;;;;19.80;65.70;;;;;;494938;240;1303;-66
2021/09/07 07:13:46;;;;;;;;;;;19.80;65.50;;;;;;494914;240;1133;-66
2021/09/07 07:15:47;;;;;;;;;;;19.90;65.30;;;;;;494648;240;1197;-66
2021/09/07 07:17:49;;;;;;;;;;;19.90;65.20;;;;;;494429;240;1123;-66
2021/09/07 07:19:51;;;;;;;;;;;19.90;64.90;;;;;;494068;237;2186;-66
2021/09/07 07:21:51;;;;;;;;;;;19.90;65.20;;;;;;494266;240;1679;-66
2021/09/07 07:23:53;;;;;;;;;;;19.80;65.30;;;;;;494277;240;943;-66
2021/09/07 07:25:54;;;;;;;;;;;19.80;65.50;;;;;;494670;236;1252;-66
2021/09/07 07:27:55;;;;;;;;;;;19.80;65.40;;;;;;494316;240;1037;-66
2021/09/07 07:29:57;;;;;;;;;;;20.00;65.00;;;;;;494265;240;1263;-66
2021/09/07 07:31:58;;;;;;;;;;;20.00;65.00;;;;;;494264;240;1326;-66
2021/09/07 07:33:59;;;;;;;;;;;19.90;65.10;;;;;;494451;240;859;-66
2021/09/07 07:36:01;;;;;;;;;;;19.90;65.00;;;;;;494415;240;1100;-66
2021/09/07 07:38:02;;;;;;;;;;;20.10;64.60;;;;;;494443;240;1048;-66
2021/09/07 07:40:03;;;;;;;;;;;20.10;64.50;;;;;;494709;240;2170;-66
2021/09/07 07:42:05;;;;;;;;;;;19.90;64.90;;;;;;494373;240;857;-66
2021/09/07 07:44:06;;;;;;;;;;;19.90;65.20;;;;;;494012;240;921;-66
2021/09/07 07:46:07;;;;;;;;;;;19.80;65.40;;;;;;494054;240;937;-66
2021/09/07 07:48:09;;;;;;;;;;;19.80;65.40;;;;;;494383;240;927;-66
2021/09/07 07:50:10;;;;;;;;;;;19.80;65.40;;;;;;493992;240;1065;-66
2021/09/07 07:52:11;;;;;;;;;;;20.00;65.10;;;;;;494141;240;890;-66
2021/09/07 07:54:13;;;;;;;;;;;20.10;64.60;;;;;;494611;240;1120;-66
2021/09/07 07:56:14;;;;;;;;;;;20.00;64.60;;;;;;494223;240;842;-66
2021/09/07 07:58:15;;;;;;;;;;;19.90;64.90;;;;;;494057;240;884;-66
2021/09/07 08:00:16;;;;;;;;;;;19.80;65.20;;;;;;494141;240;2190;-66
2021/09/07 08:02:18;;;;;;;;;;;19.80;65.50;;;;;;494548;240;868;-66
2021/09/07 08:04:19;;;;;;;;;;;19.70;65.80;;;;;;494123;240;1218;-66
2021/09/07 08:06:20;;;;;;;;;;;19.70;65.70;;;;;;493974;240;1431;-66
2021/09/07 08:08:22;;;;;;;;;;;19.90;65.20;;;;;;494322;240;1163;-67
2021/09/07 08:10:23;;;;;;;;;;;20.10;64.50;;;;;;494038;240;1203;-67
2021/09/07 08:12:24;;;;;;;;;;;20.10;64.20;;;;;;494051;240;1125;-67
2021/09/07 08:14:26;;;;;;;;;;;20.10;64.40;;;;;;493944;240;1267;-67
2021/09/07 08:16:27;;;;;;;;;;;20.00;64.80;;;;;;494636;240;1191;-66
2021/09/07 08:18:28;;;;;;;;;;;19.90;65.10;;;;;;493713;240;1094;-66
2021/09/07 08:20:31;;;;;;;;;;;20.00;64.80;;;;;;493541;240;1226;-66
2021/09/07 08:22:31;;;;;;;;;;;20.20;64.20;;;;;;493440;240;1405;-66
2021/09/07 08:24:33;;;;;;;;;;;20.30;63.80;;;;;;493517;240;1260;-66
2021/09/07 08:26:34;;;;;;;;;;;20.20;63.90;;;;;;493385;240;1409;-66
2021/09/07 08:28:35;;;;;;;;;;;20.10;64.30;;;;;;493683;240;1084;-66
2021/09/07 08:30:37;;;;;;;;;;;20.00;64.70;;;;;;493623;240;1159;-66
2021/09/07 08:32:38;;;;;;;;;;;19.90;65.10;;;;;;493685;240;1446;-66
2021/09/07 08:34:39;;;;;;;;;;;19.90;65.20;;;;;;493843;240;1111;-66
2021/09/07 08:36:41;;;;;;;;;;;19.80;65.30;;;;;;493737;240;1206;-66
2021/09/07 08:38:42;;;;;;;;;;;19.80;65.50;;;;;;494076;236;2128;-66
2021/09/07 08:40:43;;;;;;;;;;;19.90;65.40;;;;;;493681;240;1066;-66
2021/09/07 08:42:45;;;;;;;;;;;19.90;65.20;;;;;;493584;240;1120;-66
2021/09/07 08:44:46;;;;;;;;;;;20.00;65.00;;;;;;493597;240;1155;-66
2021/09/07 08:46:47;;;;;;;;;;;20.10;64.50;;;;;;493579;240;1247;-66
2021/09/07 08:48:49;;;;;;;;;;;20.10;64.50;;;;;;493683;240;1138;-66
2021/09/07 08:50:50;;;;;;;;;;;20.00;64.80;;;;;;493664;240;1320;-66
2021/09/07 08:52:51;;;;;;;;;;;19.90;65.20;;;;;;493566;240;1098;-66
2021/09/07 08:54:53;;;;;;;;;;;19.80;65.50;;;;;;493640;240;1207;-66
2021/09/07 08:56:54;;;;;;;;;;;19.70;65.70;;;;;;493518;240;1405;-66
2021/09/07 08:58:55;;;;;;;;;;;19.70;65.80;;;;;;493529;240;2190;-66
2021/09/07 09:00:57;;;;;;;;;;;19.70;65.80;;;;;;493371;240;1122;-66
2021/09/07 09:02:59;;;;;;;;;;;19.80;65.70;;;;;;493209;240;1129;-66
2021/09/07 09:05:00;;;;;;;;;;;19.80;65.60;;;;;;493368;240;1342;-66
2021/09/07 09:07:01;;;;;;;;;;;19.80;65.60;;;;;;493365;240;1241;-66
2021/09/07 09:09:03;;;;;;;;;;;19.80;65.40;;;;;;493536;240;1150;-66
2021/09/07 09:11:04;;;;;;;;;;;19.90;65.20;;;;;;493550;240;1157;-66
2021/09/07 09:13:05;;;;;;;;;;;20.20;64.60;;;;;;493661;240;1291;-66
2021/09/07 09:15:07;;;;;;;;;;;20.20;64.10;;;;;;493596;240;1145;-66
2021/09/07 09:17:08;;;;;;;;;;;20.20;64.30;;;;;;493463;240;1110;-66
2021/09/07 09:19:09;;;;;;;;;;;20.00;64.70;;;;;;493513;240;2194;-66
2021/09/07 09:21:11;;;;;;;;;;;19.90;65.20;;;;;;493512;240;1147;-66
2021/09/07 09:23:12;;;;;;;;;;;19.80;65.40;;;;;;493485;240;1207;-66
2021/09/07 09:25:13;;;;;;;;;;;19.80;65.60;;;;;;493467;240;1185;-66
2021/09/07 09:27:15;;;;;;;;;;;19.80;65.60;;;;;;493358;240;1170;-68
2021/09/07 09:29:16;;;;;;;;;;;19.80;65.70;;;;;;493421;240;1149;-66
2021/09/07 09:31:17;;;;;;;;;;;19.90;65.20;;;;;;493452;240;1100;-66
2021/09/07 09:33:19;;;;;;;;;;;20.00;64.90;;;;;;493595;240;1203;-66
2021/09/07 09:35:20;;;;;;;;;;;20.10;64.50;;;;;;493600;240;1143;-66
2021/09/07 09:37:21;;;;;;;;;;;20.10;64.60;;;;;;493735;240;1550;-66
2021/09/07 09:39:23;;;;;;;;;;;19.90;64.90;;;;;;493726;240;2198;-66
2021/09/07 09:41:24;;;;;;;;;;;19.90;65.40;;;;;;493615;240;1280;-66
2021/09/07 09:43:25;;;;;;;;;;;19.80;65.60;;;;;;493706;240;1086;-66
2021/09/07 09:45:27;;;;;;;;;;;19.70;65.80;;;;;;493748;240;1070;-66
2021/09/07 09:47:28;;;;;;;;;;;19.70;65.90;;;;;;493653;240;1317;-66
2021/09/07 09:49:30;;;;;;;;;;;19.80;65.60;;;;;;493534;240;1305;-66
2021/09/07 09:51:32;;;;;;;;;;;19.80;65.40;;;;;;494041;237;1135;-66
2021/09/07 09:53:33;;;;;;;;;;;19.80;65.60;;;;;;494144;240;1156;-66
2021/09/07 09:55:34;;;;;;;;;;;19.80;65.60;;;;;;494159;240;841;-66
2021/09/07 09:57:36;;;;;;;;;;;19.90;65.20;;;;;;494594;240;1317;-67
2021/09/07 09:59:37;;;;;;;;;;;20.10;64.80;;;;;;494517;240;2190;-67
2021/09/07 10:01:38;;;;;;;;;;;20.20;64.40;;;;;;493860;240;1160;-67
2021/09/07 10:03:40;;;;;;;;;;;20.30;63.70;;;;;;494534;240;1187;-67
2021/09/07 10:05:41;;;;;;;;;;;20.30;63.80;;;;;;494590;240;1274;-67
2021/09/07 10:07:45;;;;;;;;;;;20.20;64.20;;;;;;494189;240;1130;-67
2021/09/07 10:09:44;;;;;;;;;;;20.00;64.50;;;;;;494545;240;1299;-67
2021/09/07 10:11:45;;;;;;;;;;;20.00;65.00;;;;;;494046;240;1168;-67
2021/09/07 10:13:46;;;;;;;;;;;19.90;65.30;;;;;;494646;240;891;-67
2021/09/07 10:15:51;;;;;;;;;;;19.80;65.50;;;;;;494615;240;1169;-67
2021/09/07 10:17:51;;;;;;;;;;;19.80;65.40;;;;;;493956;240;1298;-67
2021/09/07 10:19:59;;;;;;;;;;;19.80;65.40;;;;;;494090;240;2197;-67
2021/09/07 10:24:30;;;;;;;;;;;19.90;65.30;;;;;;468238;253;1003;-67
2021/09/07 10:26:32;;;;;;;;;;;20.00;64.90;;;;;;468480;254;967;-67
2021/09/07 10:28:33;;;;;;;;;;;20.10;64.50;;;;;;468399;254;1082;-67
2021/09/07 10:30:34;;;;;;;;;;;20.10;64.60;;;;;;491837;240;1095;-67
2021/09/07 10:32:36;;;;;;;;;;;20.10;64.50;;;;;;494370;240;1506;-67
2021/09/07 10:34:39;;;;;;;;;;;20.00;64.80;;;;;;494570;240;860;-67
2021/09/07 10:36:38;;;;;;;;;;;19.90;65.20;;;;;;494118;240;1312;-67
2021/09/07 10:38:40;;;;;;;;;;;19.80;65.50;;;;;;494428;240;1197;-65
2021/09/07 10:40:41;;;;;;;;;;;19.80;65.50;;;;;;494836;240;2193;-66
2021/09/07 10:42:42;;;;;;;;;;;19.80;65.70;;;;;;494211;240;1346;-66
2021/09/07 10:44:43;;;;;;;;;;;19.80;65.70;;;;;;493945;240;1079;-66
2021/09/07 10:46:45;;;;;;;;;;;19.80;65.60;;;;;;493924;240;1123;-66
2021/09/07 10:48:46;;;;;;;;;;;19.90;65.40;;;;;;493816;240;1124;-66
2021/09/07 10:50:48;;;;;;;;;;;20.00;64.80;;;;;;493720;240;1129;-66
2021/09/07 10:52:49;;;;;;;;;;;20.00;64.70;;;;;;493925;240;1100;-66
2021/09/07 10:54:50;;;;;;;;;;;19.90;65.00;;;;;;493952;240;1189;-66
2021/09/07 10:56:56;;;;;;;;;;;19.80;65.40;;;;;;493991;240;1252;-66
2021/09/07 10:58:53;;;;;;;;;;;19.80;65.60;;;;;;493764;240;1342;-66
2021/09/07 11:00:55;;;;;;;;;;;19.80;65.70;;;;;;493953;240;2179;-66
2021/09/07 11:02:56;;;;;;;;;;;19.80;65.50;;;;;;493654;240;1174;-66
2021/09/07 11:04:58;;;;;;;;;;;20.10;64.80;;;;;;493786;240;1084;-66
2021/09/07 11:06:59;;;;;;;;;;;20.20;64.10;;;;;;494226;240;1501;-66
2021/09/07 11:09:00;;;;;;;;;;;20.40;63.70;;;;;;494582;240;1077;-66
2021/09/07 11:11:01;;;;;;;;;;;20.50;63.20;;;;;;494852;240;1268;-66
2021/09/07 11:13:03;;;;;;;;;;;20.60;62.80;;;;;;494385;240;898;-66
2021/09/07 11:15:04;;;;;;;;;;;20.40;63.20;;;;;;494834;240;1567;-66
2021/09/07 11:17:05;;;;;;;;;;;20.30;63.80;;;;;;494747;240;1195;-66
2021/09/07 11:19:06;;;;;;;;;;;20.10;64.20;;;;;;494644;240;951;-66
2021/09/07 11:21:08;;;;;;;;;;;20.00;64.70;;;;;;494189;240;2199;-66
2021/09/07 11:23:10;;;;;;;;;;;20.00;65.10;;;;;;494299;240;1320;-66
2021/09/07 11:25:11;;;;;;;;;;;19.90;65.20;;;;;;494270;240;857;-66
2021/09/07 11:27:12;;;;;;;;;;;19.90;65.40;;;;;;494291;240;1336;-66
2021/09/07 11:29:14;;;;;;;;;;;20.10;64.70;;;;;;494223;240;1072;-66
2021/09/07 11:31:15;;;;;;;;;;;20.30;64.10;;;;;;494713;240;1316;-66
2021/09/07 11:33:16;;;;;;;;;;;20.30;63.90;;;;;;494613;240;1363;-66
2021/09/07 11:35:18;;;;;;;;;;;20.20;64.20;;;;;;494225;240;1226;-66
2021/09/07 11:37:19;;;;;;;;;;;20.10;64.60;;;;;;494112;240;1021;-66
2021/09/07 11:39:20;;;;;;;;;;;20.00;65.00;;;;;;494074;240;1468;-66
2021/09/07 11:41:22;;;;;;;;;;;19.90;65.30;;;;;;494113;240;2243;-66
2021/09/07 11:43:23;;;;;;;;;;;19.80;65.60;;;;;;494601;240;869;-65
2021/09/07 11:45:24;;;;;;;;;;;19.80;65.70;;;;;;494166;240;885;-66
2021/09/07 11:47:26;;;;;;;;;;;19.80;65.70;;;;;;494132;240;1260;-66
2021/09/07 11:49:27;;;;;;;;;;;19.70;65.80;;;;;;493881;240;1127;-66
2021/09/07 11:51:28;;;;;;;;;;;19.80;65.70;;;;;;493711;240;1229;-66
2021/09/07 11:53:30;;;;;;;;;;;19.90;65.30;;;;;;493770;236;1316;-66
2021/09/07 11:55:31;;;;;;;;;;;20.10;64.60;;;;;;493753;240;1278;-66
2021/09/07 11:57:32;;;;;;;;;;;20.30;64.10;;;;;;493686;240;1320;-66
2021/09/07 11:59:33;;;;;;;;;;;20.40;63.60;;;;;;493717;240;1140;-66